Sierra Vista, AZ

8:34 AM MST on January 30, 2015 (GMT -0700)
Fort Huachuca | Change Station
CLOSE
Current Station
Airport
Location: Fort Huachuca,
Elevation: 4767 ft
Nearby Weather Stations
Active Advisory: Areal Flood Advisory Active Notice: Public Information Statement

Elev 4767 ft 31.61 °N, 110.43 °W | Updated 5 minutes ago

Rain
Rain
48 °F
Feels Like 48 °F
N
12
Wind Variable Wind from East

Today
High -- | Low -- °F
--% Chance of Precip.
Yesterday
High -- | Low -- °F
Precip. -- in
7:15 AM 5:54 PM
Waxing Gibbous, 83% visible
Pressure 30.02 in
Visibility 5.0 miles
Clouds Mostly Cloudy 300 ft
Overcast 6000 ft
Dew Point 46 °F
Humidity 93%
Rainfall 0.30 in
Snow Depth Not available.
UV 0 out of 12
Pollen .50 out of 12
Air Quality Not available.
Flu Activity Not available.
SPECI KALK 301529Z AUTO 08010KT 5SM -RA BR BKN003 OVC060 09/08 A3002 RMK AO2 P0004 TSNO $

More Conditions Fewer Conditions

Pressure 30.02 in
Visibility 5.0 miles
Clouds Mostly Cloudy 300 ft
Overcast 6000 ft
Dew Point 46 °F
Humidity 93%
Rainfall 0.30 in
Snow Depth Not available.
UV 0 out of 12
Pollen .50 out of 12
Air Quality Not available.
Flu Activity Not available.
SPECI KALK 301529Z AUTO 08010KT 5SM -RA BR BKN003 OVC060 09/08 A3002 RMK AO2 P0004 TSNO $

More Conditions Fewer Conditions

Nowcast | as of 6:30 am MST on January 30, 2015

Widespread moderate rainfall...mainly along and east of a Tucson to Nogales line...will move northeast at 20 mph through daybreak. These showers will produce generally a tenth to a quarter inch of valley rain between 630 and 830 am. Localized areas of brief heavy rain will produce up to a half inch of rain. Heavy rainfall over the past several hours in the higher terrain of southeast Cochise as well as the Catalina and Rincon Mountains in eastern Pima County will result in water flowing in small creeks and washes. Exercise caution...and never attempt to cross through running water of unknown depth this morning.

×

10-Day Weather Forecast

Almanac

Astronomy

Jan. 30, 2015 Rise Set
Actual Time
Civil Twilight
Nautical Twilight
Astronomical Twilight
Moon
Length of Visible Light
Length of Day
Tomorrow will be .
, % of the Moon is Illuminated

Today's Extremes

State Highs State Lows

Community

WunderPhotos

Upload Photos

1,791,791 photos uploaded!

WunderBlogs® & News

Nearby

Air Quality

  Air Quality AQ Index Pollutant
Not available.

Snow Depth

Station Depth Elevation

Earthquake Activity

City Distance Mag. Time & Date
Minimum magnitude displayed is 2.5.

Coastal Water Temperatures

Place Temperature

Nearby Weather Stations